Time;durP1;ratioP1;P1;durP2;ratioP2;P2;SDS_P1;SDS_P2;PMS_P1;PMS_P2;Temp;Humidity;BMP_temperature;BMP_pressure;BME280_temperature;BME280_humidity;BME280_pressure;Samples;Min_cycle;Max_cycle;Signal;HPM_P1;HPM_P2
2023/01/14 00:00:13;;;;;;;;;9.50;6.75;;;;;10.06;67.74;101305.38;5047021;28;45403;-62
2023/01/14 00:02:39;;;;;;;;;8.00;5.80;;;;;10.12;67.52;101304.59;5049073;28;45527;-63
2023/01/14 00:05:05;;;;;;;;;3.00;3.00;;;;;10.13;68.13;101295.31;5032439;28;45790;-63
2023/01/14 00:07:30;;;;;;;;;4.50;4.50;;;;;9.98;68.61;101273.44;5065811;28;45784;-63
2023/01/14 00:09:56;;;;;;;;;8.25;6.00;;;;;10.12;69.34;101298.25;5048467;28;46473;-63
2023/01/14 00:12:21;;;;;;;;;3.25;3.25;;;;;10.08;68.83;101277.78;5048566;28;45414;-63
2023/01/14 00:14:47;;;;;;;;;8.00;6.00;;;;;10.11;69.39;101294.69;5049585;28;45459;-61
2023/01/14 00:17:13;;;;;;;;;10.00;4.00;;;;;10.12;69.99;101290.03;5031301;28;45608;-62
2023/01/14 00:19:38;;;;;;;;;12.25;12.25;;;;;10.07;69.30;101287.03;5045241;28;45501;-64
2023/01/14 00:22:04;;;;;;;;;3.50;3.00;;;;;9.78;69.92;101218.41;5053835;28;45536;-64
2023/01/14 00:24:29;;;;;;;;;3.00;2.75;;;;;10.09;70.34;101266.59;5069618;28;45322;-63
2023/01/14 00:26:55;;;;;;;;;3.00;2.75;;;;;10.12;70.86;101266.22;5070110;28;45655;-63
2023/01/14 00:29:31;;;;;;;;;5.60;3.40;;;;;10.13;70.59;101256.94;5086543;27;45395;-63
2023/01/14 00:31:57;;;;;;;;;2.00;1.00;;;;;10.15;71.65;101254.81;5087265;27;45333;-62
2023/01/14 00:34:24;;;;;;;;;2.40;2.00;;;;;10.17;71.46;101255.50;5053004;28;45431;-64
2023/01/14 00:36:50;;;;;;;;;3.40;2.00;;;;;10.04;72.08;101233.44;5069798;28;45745;-64
2023/01/14 00:39:16;;;;;;;;;2.50;2.50;;;;;10.09;72.63;101252.88;5069822;28;45388;-63
2023/01/14 00:41:41;;;;;;;;;2.50;2.50;;;;;10.01;72.79;101242.91;5054293;28;45492;-62
2023/01/14 00:44:07;;;;;;;;;4.00;3.00;;;;;10.00;73.79;101230.25;5069585;28;45408;-62
2023/01/14 00:46:33;;;;;;;;;3.00;2.25;;;;;10.05;73.36;101232.38;5055424;28;45355;-63
2023/01/14 00:49:00;;;;;;;;;6.40;2.40;;;;;9.98;74.41;101220.50;5039840;28;45356;-64
2023/01/14 00:51:26;;;;;;;;;2.60;2.00;;;;;10.09;74.75;101227.34;5057888;28;45287;-64
2023/01/14 00:53:51;;;;;;;;;3.00;3.00;;;;;10.01;75.28;101228.31;5056576;28;45789;-62
2023/01/14 00:56:18;;;;;;;;;2.00;2.00;;;;;9.90;76.25;101214.13;5073692;28;45604;-64
2023/01/14 00:58:44;;;;;;;;;1.20;0.00;;;;;9.73;75.71;101174.28;5057735;28;46269;-64
2023/01/14 01:01:09;;;;;;;;;1.25;1.25;;;;;9.86;75.43;101188.13;5057500;28;45375;-64
2023/01/14 01:03:42;;;;;;;;;2.50;2.00;;;;;9.90;76.71;101202.28;5040140;28;45476;-64
2023/01/14 01:06:07;;;;;;;;;6.00;3.40;;;;;9.81;77.22;101198.81;5073120;28;45299;-63
2023/01/14 01:08:33;;;;;;;;;3.25;2.25;;;;;9.79;75.67;101184.47;5056153;28;47335;-63
2023/01/14 01:10:58;;;;;;;;;3.00;3.00;;;;;9.89;76.66;101192.38;5073161;28;45246;-62
2023/01/14 01:13:24;;;;;;;;;3.00;3.00;;;;;9.92;76.69;101178.25;5057843;28;45601;-63
2023/01/14 01:15:50;;;;;;;;;3.75;3.75;;;;;9.74;76.41;101137.59;5057905;28;45393;-62
2023/01/14 01:18:16;;;;;;;;;5.60;3.00;;;;;9.94;75.87;101156.13;5057628;28;46640;-63
2023/01/14 01:20:42;;;;;;;;;7.00;7.00;;;;;9.88;76.54;101141.31;5026395;28;45516;-63
2023/01/14 01:23:09;;;;;;;;;7.60;6.60;;;;;9.94;76.16;101140.53;5031499;28;45466;-63
2023/01/14 01:25:34;;;;;;;;;9.00;8.80;;;;;9.99;76.69;101161.88;5022287;28;45576;-64
2023/01/14 01:28:00;;;;;;;;;6.00;5.75;;;;;10.04;75.77;101162.13;5022493;28;47222;-63
2023/01/14 01:30:26;;;;;;;;;4.50;4.50;;;;;10.04;76.37;101159.38;5038851;28;45833;-63
2023/01/14 01:32:52;;;;;;;;;3.00;3.00;;;;;9.74;76.02;101112.94;5039530;28;45348;-64
2023/01/14 01:35:18;;;;;;;;;4.40;3.00;;;;;10.07;76.50;101160.84;5039604;28;45293;-64
2023/01/14 01:37:44;;;;;;;;;7.50;4.75;;;;;9.94;76.81;101146.00;5005907;28;45442;-62
2023/01/14 01:40:10;;;;;;;;;4.00;3.00;;;;;10.02;77.25;101156.84;5038750;28;45328;-63
2023/01/14 01:42:35;;;;;;;;;5.00;3.20;;;;;10.04;76.66;101153.91;5022950;28;45919;-63
2023/01/14 01:45:16;;;;;;;;;9.75;6.00;;;;;9.95;76.25;101138.63;5056810;28;45626;-62
2023/01/14 01:47:41;;;;;;;;;4.40;4.00;;;;;10.11;77.14;101160.28;5054947;28;45319;-63
2023/01/14 01:50:07;;;;;;;;;3.00;2.00;;;;;10.11;76.92;101154.81;5056960;28;45414;-63
2023/01/14 01:52:33;;;;;;;;;6.00;6.00;;;;;10.09;77.01;101151.38;5057299;28;45367;-63
2023/01/14 01:55:01;;;;;;;;;3.00;2.25;;;;;10.16;77.56;101156.94;5072903;28;45435;-64
2023/01/14 01:57:27;;;;;;;;;2.00;2.00;;;;;10.20;76.78;101149.16;5038393;28;46561;-64
2023/01/14 01:59:55;;;;;;;;;3.75;3.75;;;;;10.20;77.10;101152.75;5056874;28;45765;-63
2023/01/14 02:02:21;;;;;;;;;7.00;3.40;;;;;10.21;77.81;101145.38;5039019;28;45386;-62
2023/01/14 02:04:46;;;;;;;;;6.75;4.00;;;;;10.22;77.23;101147.91;5057006;28;45293;-63
2023/01/14 02:07:23;;;;;;;;;4.50;2.00;;;;;10.11;78.08;101121.03;5056905;28;46561;-64
2023/01/14 02:09:50;;;;;;;;;6.00;4.60;;;;;10.22;77.79;101141.56;5071782;28;45349;-63
2023/01/14 02:12:53;;;;;;;;;6.00;3.40;;;;;10.13;79.35;101138.13;5055545;28;45439;-64
2023/01/14 02:15:43;;;;;;;;;6.20;4.00;;;;;10.07;79.22;101114.22;5038543;28;45661;-64
2023/01/14 02:18:36;;;;;;;;;6.40;2.60;;;;;9.97;79.55;101078.97;5070086;28;45502;-63
2023/01/14 02:21:40;;;;;;;;;2.60;2.00;;;;;10.06;79.02;101090.59;5056083;28;45358;-63
2023/01/14 02:24:47;;;;;;;;;4.00;4.00;;;;;10.20;78.93;101103.38;5016845;28;45682;-63
2023/01/14 02:27:34;;;;;;;;;2.40;2.40;;;;;10.19;79.46;101095.34;5042267;28;45432;-63
2023/01/14 02:30:20;;;;;;;;;1.00;1.00;;;;;10.20;80.30;101095.16;5022690;28;47984;-63
2023/01/14 02:33:04;;;;;;;;;2.20;2.20;;;;;10.18;80.32;101083.50;5052675;28;45275;-63
2023/01/14 02:35:42;;;;;;;;;2.00;2.00;;;;;10.19;79.60;101082.47;5056513;28;45412;-65
2023/01/14 02:38:07;;;;;;;;;2.80;2.00;;;;;10.22;80.19;101093.06;5071504;28;45354;-64
2023/01/14 02:40:53;;;;;;;;;2.50;2.50;;;;;10.21;79.78;101082.28;5056094;28;45845;-63
2023/01/14 02:46:32;;;;;;;;;1.40;1.40;;;;;10.29;79.61;101088.44;5054480;28;45267;-62
2023/01/14 02:48:59;;;;;;;;;1.80;1.80;;;;;10.28;79.41;101085.91;5005352;28;45408;-64
2023/01/14 02:51:25;;;;;;;;;0.00;0.00;;;;;10.30;80.09;101075.59;5021195;28;46574;-63
2023/01/14 02:53:51;;;;;;;;;0.00;0.00;;;;;10.27;79.89;101074.09;5021394;28;45910;-63
2023/01/14 02:56:16;;;;;;;;;2.50;1.00;;;;;10.37;79.45;101081.97;5037651;28;45369;-64
2023/01/14 02:59:05;;;;;;;;;4.25;2.25;;;;;10.42;78.97;101084.09;5037840;28;45354;-62
2023/01/14 03:01:44;;;;;;;;;2.60;2.00;;;;;10.36;78.96;101052.81;5043066;28;45372;-62
2023/01/14 03:04:17;;;;;;;;;1.00;1.00;;;;;10.41;78.74;101052.22;5038708;28;45432;-64
2023/01/14 03:07:19;;;;;;;;;1.00;1.00;;;;;10.35;79.06;101050.28;5038463;28;45262;-64
2023/01/14 03:09:45;;;;;;;;;2.00;0.60;;;;;10.44;78.40;101063.66;5054610;28;45329;-63
2023/01/14 03:12:14;;;;;;;;;2.80;1.60;;;;;10.27;78.33;101030.19;5055125;28;45270;-63
2023/01/14 03:14:59;;;;;;;;;1.00;1.00;;;;;10.30;78.23;101026.22;5055468;28;45417;-63
2023/01/14 03:17:28;;;;;;;;;1.00;1.00;;;;;10.46;78.58;101043.41;5038143;28;45447;-64
2023/01/14 03:20:04;;;;;;;;;2.40;1.00;;;;;10.39;77.27;101027.72;5055558;28;45428;-63
2023/01/14 03:22:29;;;;;;;;;2.60;1.80;;;;;10.47;77.20;101025.88;5037478;28;45477;-63
2023/01/14 03:24:56;;;;;;;;;2.00;1.50;;;;;10.49;78.10;101027.38;5055191;28;45251;-63
2023/01/14 03:27:23;;;;;;;;;1.00;1.00;;;;;10.40;77.17;100999.22;5053744;28;45361;-63
2023/01/14 03:29:57;;;;;;;;;1.60;0.60;;;;;10.24;76.93;100966.66;5021284;28;45371;-64
2023/01/14 03:32:28;;;;;;;;;4.00;1.80;;;;;10.52;76.46;100988.53;5037329;28;45420;-63
2023/01/14 03:34:58;;;;;;;;;3.80;2.20;;;;;10.48;77.31;100967.19;5037277;28;45418;-64
2023/01/14 03:37:24;;;;;;;;;4.40;1.80;;;;;10.54;76.59;100971.88;5037555;28;45268;-63
2023/01/14 03:39:50;;;;;;;;;1.40;1.20;;;;;10.54;77.11;100960.88;5037529;28;45398;-63
2023/01/14 03:42:18;;;;;;;;;3.00;3.00;;;;;10.50;77.16;100943.97;5019843;28;45640;-64
2023/01/14 03:44:52;;;;;;;;;1.60;1.60;;;;;10.54;76.79;100960.88;5024004;28;45474;-64
2023/01/14 03:47:18;;;;;;;;;0.40;0.40;;;;;10.56;77.03;100951.41;5086730;27;45328;-63
2023/01/14 03:49:44;;;;;;;;;0.50;0.50;;;;;10.57;77.11;100955.81;5055535;28;45389;-61
2023/01/14 03:52:14;;;;;;;;;2.25;1.00;;;;;10.58;77.15;100931.97;5087471;27;46345;-63
2023/01/14 03:54:48;;;;;;;;;2.00;0.00;;;;;10.53;77.29;100923.53;5070749;28;45350;-63
2023/01/14 03:57:16;;;;;;;;;0.60;0.60;;;;;10.54;76.90;100926.06;5087590;27;45448;-63
2023/01/14 04:00:07;;;;;;;;;4.00;1.60;;;;;10.32;77.48;100897.91;5055353;28;45414;-63
2023/01/14 04:02:33;;;;;;;;;2.00;2.00;;;;;10.29;77.19;100885.44;5085423;27;47016;-63
2023/01/14 04:04:58;;;;;;;;;3.25;1.50;;;;;10.33;76.52;100894.09;5070687;28;45321;-63
2023/01/14 04:07:24;;;;;;;;;2.00;1.00;;;;;10.54;77.16;100919.72;5070183;28;45318;-63
2023/01/14 04:09:50;;;;;;;;;2.25;1.00;;;;;10.56;76.75;100917.59;5087816;27;45313;-63
2023/01/14 04:12:15;;;;;;;;;3.00;2.00;;;;;10.56;76.92;100912.97;5069732;28;46889;-63
2023/01/14 04:17:25;;;;;;;;;0.80;0.80;;;;;10.53;76.78;100874.13;5054785;28;45863;-63
2023/01/14 04:19:51;;;;;;;;;3.00;2.00;;;;;10.53;76.72;100863.16;5055251;28;45395;-63
2023/01/14 04:22:16;;;;;;;;;3.25;2.00;;;;;10.52;76.83;100866.94;5054284;28;46557;-63
2023/01/14 04:24:42;;;;;;;;;3.25;1.50;;;;;10.49;77.18;100859.97;5054499;28;45300;-63
2023/01/14 04:27:07;;;;;;;;;1.75;1.75;;;;;10.49;76.59;100856.38;5034123;28;45389;-64
2023/01/14 04:29:33;;;;;;;;;6.50;2.00;;;;;10.45;76.85;100847.72;5054630;28;45405;-63
2023/01/14 04:31:58;;;;;;;;;1.00;1.00;;;;;10.37;77.45;100828.69;5036233;28;47384;-63
2023/01/14 04:34:24;;;;;;;;;1.50;1.25;;;;;10.49;77.31;100842.66;5069639;28;45472;-63
2023/01/14 04:36:49;;;;;;;;;1.00;1.00;;;;;10.55;76.87;100842.66;5054440;28;45354;-63
2023/01/14 04:39:15;;;;;;;;;2.00;2.00;;;;;10.58;76.69;100842.25;5070184;28;45304;-63
2023/01/14 04:44:24;;;;;;;;;7.60;1.80;;;;;10.56;76.74;100835.25;5054038;28;45445;-63
2023/01/14 04:46:50;;;;;;;;;2.00;2.00;;;;;10.37;77.11;100812.22;5054018;28;45416;-64
2023/01/14 04:49:15;;;;;;;;;4.75;4.00;;;;;10.52;77.21;100814.81;5036039;28;45457;-63
2023/01/14 04:51:41;;;;;;;;;1.00;1.00;;;;;10.53;76.84;100822.84;5068958;28;46668;-63
2023/01/14 04:54:06;;;;;;;;;3.75;3.25;;;;;10.56;76.88;100816.06;5054067;28;45268;-63
2023/01/14 04:56:32;;;;;;;;;3.75;2.50;;;;;10.56;76.85;100821.53;5053904;28;45350;-63
2023/01/14 04:59:01;;;;;;;;;3.75;3.00;;;;;10.53;77.25;100803.63;5054464;28;45344;-64
2023/01/14 05:01:27;;;;;;;;;2.60;1.60;;;;;10.52;76.73;100793.69;5053928;28;46526;-64
2023/01/14 05:03:54;;;;;;;;;3.40;1.00;;;;;10.56;77.33;100789.47;5053715;28;45389;-64
2023/01/14 05:06:20;;;;;;;;;2.00;2.00;;;;;10.56;76.19;100794.09;5054031;28;45258;-63
2023/01/14 05:08:47;;;;;;;;;3.25;3.25;;;;;10.58;76.59;100790.09;5054227;28;45373;-63
2023/01/14 05:11:13;;;;;;;;;4.80;3.40;;;;;10.60;75.96;100784.41;5035784;28;45731;-63
2023/01/14 05:13:38;;;;;;;;;5.25;4.00;;;;;10.57;76.47;100784.84;5053777;28;45397;-64
2023/01/14 05:16:04;;;;;;;;;2.00;1.00;;;;;10.42;76.26;100758.41;5052253;28;45361;-62
2023/01/14 05:18:30;;;;;;;;;3.00;1.00;;;;;10.41;76.34;100766.84;5053849;28;45365;-63
2023/01/14 05:20:55;;;;;;;;;2.75;1.75;;;;;10.60;75.63;100800.00;5053359;28;45724;-63
2023/01/14 05:23:21;;;;;;;;;2.25;2.25;;;;;10.57;75.43;100784.84;5053492;28;45354;-63
2023/01/14 05:25:47;;;;;;;;;2.75;2.00;;;;;10.60;75.46;100784.41;5053852;28;45338;-64
2023/01/14 05:28:14;;;;;;;;;4.00;1.40;;;;;10.57;75.07;100763.72;5053480;28;45496;-63
2023/01/14 05:30:39;;;;;;;;;2.40;2.20;;;;;10.61;74.98;100780.59;5053288;28;45884;-63
2023/01/14 05:33:05;;;;;;;;;1.25;1.25;;;;;10.60;74.79;100767.06;5070394;28;45593;-63
2023/01/14 05:35:31;;;;;;;;;4.00;2.50;;;;;10.58;75.46;100753.59;5057356;28;45347;-63
2023/01/14 05:37:57;;;;;;;;;2.00;1.00;;;;;10.58;75.45;100757.16;5056847;28;45639;-63
2023/01/14 05:40:22;;;;;;;;;2.00;2.00;;;;;10.55;75.20;100746.63;5072294;28;47264;-63
2023/01/14 05:45:41;;;;;;;;;2.00;1.00;;;;;10.17;75.40;100676.75;5056845;28;45326;-63
2023/01/14 05:48:07;;;;;;;;;1.20;1.00;;;;;10.55;75.47;100726.53;5040276;28;45492;-63
2023/01/14 05:50:33;;;;;;;;;4.00;0.40;;;;;9.97;75.81;100637.50;5056906;28;45749;-63
2023/01/14 05:52:59;;;;;;;;;1.00;1.00;;;;;10.58;74.57;100720.66;5038620;28;45390;-64
2023/01/14 05:55:24;;;;;;;;;3.25;1.00;;;;;10.57;74.95;100717.06;5038981;28;45492;-63
2023/01/14 05:57:50;;;;;;;;;2.00;2.00;;;;;10.60;75.55;100715.78;5056850;28;45393;-63
2023/01/14 06:08:28;;;;;;;;;3.00;1.00;;;;;10.47;75.08;100685.63;5041527;28;45293;-63
2023/01/14 06:10:54;;;;;;;;;1.00;1.00;;;;;10.42;75.17;100661.53;5038343;28;45244;-64
2023/01/14 06:13:22;;;;;;;;;1.25;0.50;;;;;10.54;74.15;100683.69;5056422;28;45214;-63
2023/01/14 06:15:51;;;;;;;;;2.20;1.80;;;;;10.54;74.72;100676.31;5056670;28;45388;-63
2023/01/14 06:18:21;;;;;;;;;2.20;1.00;;;;;10.55;74.11;100675.25;5038833;28;45330;-63
2023/01/14 06:20:47;;;;;;;;;1.80;1.80;;;;;10.35;74.46;100631.34;5023041;28;46999;-64
2023/01/14 06:23:15;;;;;;;;;2.00;2.00;;;;;10.52;74.62;100664.69;5021723;28;45422;-63
2023/01/14 06:25:47;;;;;;;;;4.80;1.00;;;;;10.53;74.01;100665.56;5056768;28;45263;-64
2023/01/14 06:28:13;;;;;;;;;2.80;2.00;;;;;10.53;74.34;100658.16;5038109;28;45572;-63
2023/01/14 06:30:39;;;;;;;;;3.75;1.00;;;;;10.54;73.92;100651.63;5056388;28;45432;-63
2023/01/14 06:33:06;;;;;;;;;2.60;1.00;;;;;10.49;74.08;100642.31;5037951;28;45478;-63
2023/01/14 06:35:32;;;;;;;;;1.00;1.00;;;;;10.53;73.74;100641.72;5038334;28;45345;-63
2023/01/14 06:37:58;;;;;;;;;2.00;1.00;;;;;10.55;73.76;100630.50;5021987;28;45728;-63
2023/01/14 06:40:23;;;;;;;;;1.50;1.25;;;;;10.48;73.84;100625.03;5055798;28;46369;-63
2023/01/14 06:42:52;;;;;;;;;0.00;0.00;;;;;10.56;74.65;100630.28;5056385;28;45779;-63
2023/01/14 06:45:18;;;;;;;;;2.00;2.00;;;;;10.58;74.70;100624.59;5043985;28;45441;-63
2023/01/14 06:47:43;;;;;;;;;0.50;0.00;;;;;10.56;74.48;100613.81;5071346;28;45525;-63
2023/01/14 06:50:09;;;;;;;;;3.75;1.00;;;;;10.57;74.24;100622.91;5056181;28;45922;-63
2023/01/14 06:52:35;;;;;;;;;3.20;1.00;;;;;10.56;74.41;100619.31;5055570;28;45405;-62
2023/01/14 06:55:00;;;;;;;;;3.00;1.00;;;;;10.55;74.32;100601.16;5054444;28;45304;-62
2023/01/14 06:57:26;;;;;;;;;2.00;2.00;;;;;10.40;74.01;100595.03;5055863;28;45559;-62
2023/01/14 06:59:52;;;;;;;;;0.50;0.50;;;;;10.43;74.88;100591.91;5055708;28;45632;-62
2023/01/14 07:02:18;;;;;;;;;2.60;1.00;;;;;10.60;74.00;100597.75;5055757;28;45739;-62
2023/01/14 07:04:43;;;;;;;;;4.25;2.00;;;;;10.57;74.69;100610.00;5053934;28;45283;-62
2023/01/14 07:07:09;;;;;;;;;0.75;0.75;;;;;10.60;74.91;100597.75;5056136;28;45147;-64
2023/01/14 07:09:34;;;;;;;;;2.00;0.75;;;;;10.56;74.61;100602.00;5055016;28;46711;-63
2023/01/14 07:12:00;;;;;;;;;6.50;1.25;;;;;10.56;74.78;100583.63;5088085;27;45404;-63
2023/01/14 07:14:25;;;;;;;;;3.00;0.00;;;;;10.57;74.52;100587.22;5055418;28;45343;-63
2023/01/14 07:16:51;;;;;;;;;1.25;1.00;;;;;10.58;74.76;100586.16;5054306;28;45803;-64
2023/01/14 07:19:17;;;;;;;;;1.00;1.00;;;;;10.59;75.31;100585.09;5070961;28;46382;-63
2023/01/14 07:21:42;;;;;;;;;2.00;0.75;;;;;10.51;75.41;100560.66;5055138;28;45383;-64
2023/01/14 07:24:08;;;;;;;;;1.50;1.00;;;;;10.62;75.27;100576.44;5071054;28;45363;-63
2023/01/14 07:26:33;;;;;;;;;1.00;0.00;;;;;10.60;74.72;100573.06;5054172;28;45528;-64
2023/01/14 07:28:59;;;;;;;;;2.67;2.00;;;;;10.57;75.19;100571.59;5055024;28;45900;-64
2023/01/14 07:31:24;;;;;;;;;1.50;1.50;;;;;10.58;75.36;100562.28;5055380;28;45531;-64
2023/01/14 07:33:50;;;;;;;;;4.00;2.00;;;;;10.53;75.53;100537.44;5087762;27;45318;-63
2023/01/14 07:36:15;;;;;;;;;0.00;0.00;;;;;10.51;75.72;100534.03;5055517;28;45472;-62
2023/01/14 07:38:41;;;;;;;;;2.50;1.50;;;;;10.56;76.63;100536.13;5087537;27;46067;-64
2023/01/14 07:41:10;;;;;;;;;0.50;0.00;;;;;10.60;77.00;100542.03;5055006;28;45178;-62
2023/01/14 07:43:36;;;;;;;;;4.00;1.40;;;;;10.41;76.48;100501.53;5053447;28;45440;-64
2023/01/14 07:46:01;;;;;;;;;1.00;0.00;;;;;10.55;76.12;100537.19;5053231;28;45639;-64
2023/01/14 07:48:28;;;;;;;;;0.00;0.00;;;;;10.31;76.58;100491.03;5054785;28;46040;-63
2023/01/14 07:50:53;;;;;;;;;4.00;1.80;;;;;10.38;76.58;100501.97;5053347;28;45393;-63
2023/01/14 07:53:19;;;;;;;;;3.25;1.00;;;;;10.35;75.88;100493.34;5053703;28;45447;-64
2023/01/14 07:55:44;;;;;;;;;5.50;2.00;;;;;10.51;76.05;100503.03;5053506;28;45347;-64
2023/01/14 07:58:10;;;;;;;;;1.00;1.00;;;;;10.55;76.07;100526.22;5053118;28;47333;-64
2023/01/14 08:00:36;;;;;;;;;2.00;1.00;;;;;10.55;76.48;100502.38;5053711;28;45208;-63
2023/01/14 08:03:02;;;;;;;;;2.00;0.40;;;;;10.54;76.22;100519.03;5054388;28;45408;-64
2023/01/14 08:05:27;;;;;;;;;2.50;1.00;;;;;10.56;76.66;100503.19;5055220;28;45578;-64
2023/01/14 08:07:56;;;;;;;;;2.75;2.75;;;;;10.48;77.18;100495.22;5054821;28;45346;-64
2023/01/14 08:10:21;;;;;;;;;5.20;3.20;;;;;10.22;76.94;100464.03;5037019;28;45533;-64
2023/01/14 08:12:49;;;;;;;;;7.75;2.00;;;;;10.48;77.58;100493.31;5026883;28;45890;-64
2023/01/14 08:15:15;;;;;;;;;2.80;2.80;;;;;10.50;77.54;100493.09;5033427;28;45399;-64
2023/01/14 08:17:40;;;;;;;;;1.75;1.50;;;;;10.48;77.56;100470.50;5066813;28;48091;-64
2023/01/14 08:20:07;;;;;;;;;2.00;1.00;;;;;10.58;77.62;100471.72;5034296;28;45207;-64
2023/01/14 08:22:32;;;;;;;;;2.20;1.00;;;;;10.55;78.08;100463.09;5034646;28;45188;-64
2023/01/14 08:24:58;;;;;;;;;1.50;1.50;;;;;10.55;77.87;100455.72;5034970;28;45722;-63
2023/01/14 08:27:24;;;;;;;;;1.00;0.00;;;;;10.53;78.44;100460.59;5034302;28;46451;-65
2023/01/14 08:29:50;;;;;;;;;1.00;1.00;;;;;10.41;78.49;100435.69;5034494;28;45427;-62
2023/01/14 08:32:15;;;;;;;;;1.50;1.50;;;;;10.53;78.36;100457.00;5034855;28;45360;-69
2023/01/14 08:34:41;;;;;;;;;0.00;0.00;;;;;10.54;78.89;100467.75;5049972;28;45571;-67
2023/01/14 08:37:06;;;;;;;;;0.50;0.50;;;;;10.53;78.88;100448.75;5032895;28;45697;-66
2023/01/14 08:39:32;;;;;;;;;3.00;2.00;;;;;10.50;79.46;100446.44;5034134;28;45400;-65
2023/01/14 08:41:58;;;;;;;;;1.25;1.25;;;;;10.53;79.33;100457.00;5034582;28;45443;-67
2023/01/14 08:44:23;;;;;;;;;2.00;2.00;;;;;10.30;79.97;100407.03;5034267;28;45345;-66
2023/01/14 08:46:49;;;;;;;;;0.25;0.25;;;;;10.49;79.50;100447.50;5036363;28;45459;-66
2023/01/14 08:49:14;;;;;;;;;2.25;1.00;;;;;10.50;79.39;100460.16;5052705;28;45425;-68
2023/01/14 08:51:40;;;;;;;;;1.50;1.00;;;;;10.50;79.33;100463.75;5054674;28;45326;-66
2023/01/14 08:54:06;;;;;;;;;1.00;1.00;;;;;10.46;79.77;100445.22;5054552;28;45294;-67
2023/01/14 08:56:31;;;;;;;;;1.75;1.00;;;;;10.49;80.39;100428.28;5069685;28;45972;-66
2023/01/14 08:58:57;;;;;;;;;1.50;1.00;;;;;10.51;79.80;100442.66;5054466;28;45366;-66
2023/01/14 09:01:22;;;;;;;;;0.00;0.00;;;;;10.51;79.47;100426.19;5054674;28;45213;-66
2023/01/14 09:03:48;;;;;;;;;1.00;1.00;;;;;10.54;79.35;100447.69;5036572;28;45596;-65
2023/01/14 09:06:16;;;;;;;;;1.00;1.00;;;;;10.58;79.58;100443.47;5036286;28;46146;-65
2023/01/14 09:17:06;;;;;;;;;1.40;0.20;;;;;10.58;79.93;100361.13;5048898;28;45764;-62
2023/01/14 09:19:35;;;;;;;;;0.80;0.20;;;;;10.73;80.14;100392.91;5057459;28;45493;-62
2023/01/14 09:22:01;;;;;;;;;0.00;0.00;;;;;10.80;79.75;100404.69;5028135;28;45317;-61
2023/01/14 09:24:27;;;;;;;;;2.00;1.00;;;;;10.78;80.03;100399.41;5036170;28;45635;-64
2023/01/14 09:26:52;;;;;;;;;2.75;0.75;;;;;10.87;80.09;100397.25;5037310;28;45688;-63
2023/01/14 09:29:18;;;;;;;;;0.00;0.00;;;;;10.84;80.26;100389.47;5036627;28;45422;-62
2023/01/14 09:31:43;;;;;;;;;1.25;1.25;;;;;10.87;80.01;100399.97;5037522;28;45418;-60
2023/01/14 09:34:09;;;;;;;;;1.25;1.25;;;;;10.92;80.23;100389.19;5036345;28;45641;-62
2023/01/14 09:36:34;;;;;;;;;0.75;0.75;;;;;10.96;80.00;100392.31;5037154;28;46659;-60
2023/01/14 09:39:00;;;;;;;;;2.00;1.00;;;;;10.93;81.20;100399.09;5035817;28;45601;-61
2023/01/14 09:41:34;;;;;;;;;2.00;1.00;;;;;10.94;81.53;100386.22;5035974;28;45390;-60
2023/01/14 09:44:00;;;;;;;;;2.00;1.00;;;;;10.91;80.92;100382.00;5026786;28;45269;-61
2023/01/14 09:46:30;;;;;;;;;1.40;0.00;;;;;10.89;80.40;100370.38;5036411;28;45997;-61
2023/01/14 09:49:05;;;;;;;;;1.80;0.00;;;;;11.03;79.97;100392.25;5054851;28;45806;-61
2023/01/14 09:51:35;;;;;;;;;3.20;1.00;;;;;11.05;80.02;100385.47;5039937;28;45235;-60
2023/01/14 09:54:10;;;;;;;;;0.60;0.60;;;;;11.08;79.74;100378.69;5018684;28;45746;-62
2023/01/14 09:56:49;;;;;;;;;0.80;0.60;;;;;11.11;79.81;100400.22;5049331;28;45949;-62
2023/01/14 09:59:24;;;;;;;;;1.00;1.00;;;;;11.11;79.70;100379.09;5047137;28;45919;-61
2023/01/14 10:02:00;;;;;;;;;0.00;0.00;;;;;11.14;79.75;100372.31;5037221;28;45410;-60
2023/01/14 10:04:31;;;;;;;;;1.40;0.00;;;;;11.17;79.77;100385.59;5054483;28;45375;-60
2023/01/14 10:06:57;;;;;;;;;1.00;1.00;;;;;11.21;79.84;100388.75;5055257;28;45975;-59
2023/01/14 10:09:39;;;;;;;;;2.25;2.25;;;;;11.24;79.31;100371.78;5055177;28;45382;-60
2023/01/14 10:12:05;;;;;;;;;2.40;1.40;;;;;11.27;79.09;100359.53;5036599;28;45427;-60
2023/01/14 10:14:39;;;;;;;;;1.75;1.00;;;;;11.10;78.98;100325.22;5055229;28;45596;-61
2023/01/14 10:17:06;;;;;;;;;3.00;1.00;;;;;10.85;78.90;100281.31;5037421;28;45439;-60
2023/01/14 10:19:40;;;;;;;;;0.80;0.80;;;;;11.25;79.30;100343.25;5038520;28;45449;-60
2023/01/14 10:22:13;;;;;;;;;3.80;1.00;;;;;11.01;78.99;100298.28;5017789;28;46788;-60
2023/01/14 10:24:40;;;;;;;;;2.00;2.00;;;;;11.38;79.16;100345.03;5036749;28;45303;-60
2023/01/14 10:27:14;;;;;;;;;1.00;1.00;;;;;11.34;79.33;100336.41;5036858;28;45562;-60
2023/01/14 10:29:39;;;;;;;;;2.20;1.20;;;;;11.42;78.99;100340.75;5054333;28;45822;-60
2023/01/14 10:32:07;;;;;;;;;1.75;1.50;;;;;11.44;78.70;100348.78;5054843;28;45418;-58
2023/01/14 10:34:49;;;;;;;;;0.60;0.60;;;;;11.34;79.08;100317.19;5035590;28;45474;-59
2023/01/14 10:37:15;;;;;;;;;1.00;1.00;;;;;11.48;78.96;100347.28;5033781;28;47161;-59
2023/01/14 10:39:51;;;;;;;;;1.00;0.75;;;;;11.39;79.33;100316.50;5051668;28;45447;-61
2023/01/14 10:42:26;;;;;;;;;1.00;1.00;;;;;11.46;79.12;100331.00;5037258;28;45541;-60
2023/01/14 10:44:52;;;;;;;;;1.00;1.00;;;;;11.50;79.24;100314.88;5046324;28;45505;-61
2023/01/14 10:47:18;;;;;;;;;1.00;1.00;;;;;11.47;79.48;100323.59;5031824;28;46393;-61
2023/01/14 10:49:57;;;;;;;;;1.75;1.25;;;;;11.39;79.76;100294.50;5052269;28;45807;-62
2023/01/14 10:52:26;;;;;;;;;1.00;1.00;;;;;11.49;79.96;100307.72;5054050;28;45428;-62
2023/01/14 10:54:56;;;;;;;;;1.00;1.00;;;;;11.39;79.36;100289.00;5069185;28;45703;-62
2023/01/14 10:57:22;;;;;;;;;1.00;1.00;;;;;11.50;79.98;100303.91;5053194;28;46762;-64
2023/01/14 10:59:53;;;;;;;;;4.75;1.00;;;;;11.50;80.03;100291.00;5033778;28;45437;-61
2023/01/14 11:02:34;;;;;;;;;2.00;0.20;;;;;11.52;79.90;100288.88;5035979;28;45458;-63
2023/01/14 11:05:05;;;;;;;;;2.00;1.00;;;;;11.51;79.83;100292.69;5053465;28;45635;-62
2023/01/14 11:07:36;;;;;;;;;3.00;1.60;;;;;11.53;80.05;100289.72;5047883;28;45613;-61
2023/01/14 11:10:22;;;;;;;;;1.60;1.60;;;;;11.52;79.72;100280.63;5034957;28;45971;-63
2023/01/14 11:12:47;;;;;;;;;1.20;1.20;;;;;11.53;80.00;100281.47;5017557;28;45466;-64
2023/01/14 11:15:45;;;;;;;;;1.75;1.75;;;;;11.55;80.44;100265.59;5035729;28;45557;-64
2023/01/14 11:18:30;;;;;;;;;3.20;1.80;;;;;11.53;80.20;100243.00;5036914;28;45654;-65
2023/01/14 11:21:00;;;;;;;;;1.60;1.60;;;;;11.48;80.57;100243.66;5035536;28;45915;-61
2023/01/14 11:23:36;;;;;;;;;2.00;0.80;;;;;11.51;80.35;100251.47;5047734;28;45349;-63
2023/01/14 11:26:22;;;;;;;;;2.00;2.00;;;;;11.29;80.37;100198.03;5037355;28;45464;-64
2023/01/14 11:28:51;;;;;;;;;3.20;1.80;;;;;11.39;80.43;100220.31;5016610;28;46431;-67
2023/01/14 11:31:26;;;;;;;;;3.00;3.00;;;;;11.43;81.03;100226.19;5015308;28;45408;-67
2023/01/14 11:33:52;;;;;;;;;1.60;0.80;;;;;11.42;80.84;100203.38;5007280;28;45708;-64
2023/01/14 11:36:25;;;;;;;;;1.00;1.00;;;;;11.36;80.72;100182.31;5032810;28;45592;-66
2023/01/14 11:38:51;;;;;;;;;1.00;1.00;;;;;11.39;81.11;100193.66;5036354;28;46081;-65
2023/01/14 11:41:49;;;;;;;;;2.00;2.00;;;;;11.38;82.06;100185.69;5003260;28;45968;-64
2023/01/14 11:44:19;;;;;;;;;1.60;1.60;;;;;11.37;81.35;100178.50;5002631;28;45545;-64
2023/01/14 11:46:45;;;;;;;;;1.60;1.40;;;;;11.22;81.39;100149.50;5050167;28;45632;-63
2023/01/14 11:49:16;;;;;;;;;1.00;1.00;;;;;11.39;81.72;100177.19;5049664;28;46414;-60
2023/01/14 11:51:57;;;;;;;;;2.00;2.00;;;;;11.38;81.71;100159.03;5030796;28;45444;-66
2023/01/14 11:54:22;;;;;;;;;4.20;2.40;;;;;11.42;81.95;100159.41;5013269;28;45425;-64
2023/01/14 11:56:48;;;;;;;;;4.00;3.00;;;;;11.39;82.11;100163.44;5027831;28;45364;-64
2023/01/14 11:59:16;;;;;;;;;3.00;2.00;;;;;11.38;81.91;100148.03;5032713;28;47366;-63
2023/01/14 12:01:56;;;;;;;;;3.20;2.20;;;;;11.24;82.17;100116.31;5032602;28;45820;-63